createdAt,value
2019-05-17T00:00:17.899Z,98.71
2019-05-17T00:01:17.861Z,98.92
2019-05-17T00:02:18.459Z,98.92
2019-05-17T00:03:17.841Z,98.92
2019-05-17T00:04:17.823Z,98.51
2019-05-17T00:05:17.941Z,98.92
2019-05-17T00:06:17.805Z,99.12
2019-05-17T00:07:17.806Z,99.02
2019-05-17T00:08:31.041Z,98.82
2019-05-17T00:09:18.780Z,98.41
2019-05-17T00:10:17.754Z,98.92
2019-05-17T00:11:17.743Z,98.92
2019-05-17T00:12:17.750Z,99.33
2019-05-17T00:13:17.722Z,99.12
2019-05-17T00:14:17.711Z,98.92
2019-05-17T00:15:17.706Z,99.02
2019-05-17T00:16:17.716Z,99.22
2019-05-17T00:17:17.714Z,99.02
2019-05-17T00:18:17.686Z,99.12
2019-05-17T00:19:17.653Z,99.22
2019-05-17T00:20:17.731Z,98.51
2019-05-17T00:21:17.633Z,98.71
2019-05-17T00:22:17.619Z,98.51
2019-05-17T00:23:17.623Z,99.22
2019-05-17T00:24:18.324Z,99.12
2019-05-17T00:25:17.589Z,99.02
2019-05-17T00:26:17.579Z,99.02
2019-05-17T00:27:17.563Z,98.92
2019-05-17T00:28:17.585Z,99.12
2019-05-17T00:29:17.556Z,99.43
2019-05-17T00:30:17.831Z,99.99
2019-05-17T00:31:17.519Z,99.99
2019-05-17T00:32:17.511Z,99.84
2019-05-17T00:33:17.525Z,99.79
2019-05-17T00:34:17.486Z,99.99
2019-05-17T00:35:18.006Z,99.99
2019-05-17T00:36:17.971Z,99.99
2019-05-17T00:37:17.568Z,99.99
2019-05-17T00:38:17.469Z,99.99
2019-05-17T00:39:17.465Z,99.99
2019-05-17T00:40:17.423Z,99.99
2019-05-17T00:41:17.713Z,99.99
2019-05-17T00:42:17.396Z,99.99
2019-05-17T00:43:17.404Z,99.99
2019-05-17T00:44:17.377Z,99.99
2019-05-17T00:45:17.760Z,99.99
2019-05-17T00:46:17.396Z,99.99
2019-05-17T00:47:17.350Z,99.99
2019-05-17T00:48:17.376Z,99.99
2019-05-17T00:49:17.351Z,99.99
2019-05-17T00:50:17.364Z,99.99
2019-05-17T00:51:17.305Z,99.99
2019-05-17T00:52:17.302Z,99.99
2019-05-17T00:53:17.303Z,99.99
2019-05-17T00:54:17.613Z,99.99
2019-05-17T00:55:17.696Z,99.99
2019-05-17T00:56:17.266Z,99.99
2019-05-17T00:57:17.240Z,99.99
2019-05-17T00:58:17.553Z,99.99
2019-05-17T00:59:17.285Z,99.99
2019-05-17T01:00:17.414Z,99.99
2019-05-17T01:01:17.197Z,99.99
2019-05-17T01:02:17.208Z,99.83
2019-05-17T01:03:17.267Z,99.83
2019-05-17T01:04:17.476Z,99.93
2019-05-17T01:05:17.365Z,99.99
2019-05-17T01:06:17.149Z,99.73
2019-05-17T01:07:17.710Z,99.99
2019-05-17T01:08:17.560Z,99.99
2019-05-17T01:09:17.227Z,99.83
2019-05-17T01:10:17.098Z,99.99
2019-05-17T01:11:17.081Z,99.99
2019-05-17T01:12:17.075Z,99.99
2019-05-17T01:13:17.421Z,99.77
2019-05-17T01:14:17.689Z,99.77
2019-05-17T01:15:17.039Z,99.88
2019-05-17T01:16:17.035Z,99.99
2019-05-17T01:17:17.012Z,99.99
2019-05-17T01:18:16.998Z,99.98
2019-05-17T01:19:17.012Z,99.77
2019-05-17T01:20:17.488Z,99.77
2019-05-17T01:21:17.008Z,99.77
2019-05-17T01:22:17.468Z,99.99
2019-05-17T01:23:16.945Z,99.99
2019-05-17T01:24:17.458Z,99.99
2019-05-17T01:25:17.346Z,99.99
2019-05-17T01:26:18.423Z,99.99
2019-05-17T01:27:17.347Z,99.99
2019-05-17T01:28:16.887Z,99.99
2019-05-17T01:29:17.505Z,99.99
2019-05-17T01:30:17.445Z,99.99
2019-05-17T01:31:17.351Z,99.99
2019-05-17T01:32:17.334Z,99.99
2019-05-17T01:33:17.268Z,99.99
2019-05-17T01:34:16.892Z,99.99
2019-05-17T01:35:17.052Z,99.99
2019-05-17T01:36:17.289Z,99.99
2019-05-17T01:37:17.294Z,99.99
2019-05-17T01:38:17.773Z,99.99
2019-05-17T01:39:21.129Z,99.99
2019-05-17T01:40:17.576Z,99.99
2019-05-17T01:41:17.349Z,99.99
2019-05-17T01:42:17.327Z,99.99
2019-05-17T01:43:16.812Z,99.99
2019-05-17T01:44:16.911Z,99.99
2019-05-17T01:45:16.933Z,99.99
2019-05-17T01:46:17.215Z,99.99
2019-05-17T01:47:16.798Z,99.99
2019-05-17T01:48:16.680Z,99.99
2019-05-17T01:49:16.688Z,99.99
2019-05-17T01:50:17.478Z,99.99
2019-05-17T01:51:17.051Z,99.99
2019-05-17T01:52:16.835Z,99.99
2019-05-17T01:53:16.776Z,99.99
2019-05-17T01:54:17.598Z,99.99
2019-05-17T01:55:17.366Z,99.99
2019-05-17T01:56:17.028Z,99.99
2019-05-17T01:57:16.979Z,99.99
2019-05-17T01:58:16.564Z,99.99
2019-05-17T01:59:17.324Z,99.99
2019-05-17T02:00:17.538Z,99.99
2019-05-17T02:01:17.089Z,99.99
2019-05-17T02:02:16.522Z,99.99
2019-05-17T02:03:17.313Z,99.99
2019-05-17T02:04:17.362Z,99.99
2019-05-17T02:05:17.291Z,99.99
2019-05-17T02:06:16.673Z,99.99
2019-05-17T02:07:17.298Z,99.99
2019-05-17T02:08:17.109Z,99.99
2019-05-17T02:09:32.339Z,99.99
2019-05-17T02:10:17.445Z,99.99
2019-05-17T02:11:18.468Z,99.99
2019-05-17T02:12:17.318Z,99.99
2019-05-17T02:13:16.593Z,99.99
2019-05-17T02:14:16.711Z,99.99
2019-05-17T02:15:16.629Z,99.99
2019-05-17T02:16:16.624Z,99.99
2019-05-17T02:17:17.420Z,99.99
2019-05-17T02:18:17.369Z,99.99
2019-05-17T02:19:17.444Z,99.99
2019-05-17T02:20:17.016Z,99.99
2019-05-17T02:21:16.816Z,99.99
2019-05-17T02:22:16.852Z,99.99
2019-05-17T02:23:17.435Z,99.99
2019-05-17T02:24:16.906Z,99.99
2019-05-17T02:25:16.708Z,99.99
2019-05-17T02:26:17.407Z,99.99
2019-05-17T02:27:16.234Z,99.99
2019-05-17T02:28:16.225Z,99.99
2019-05-17T02:29:16.220Z,99.99
2019-05-17T02:30:16.222Z,99.99
2019-05-17T02:31:16.193Z,99.99
2019-05-17T02:32:16.183Z,99.99
2019-05-17T02:33:16.172Z,99.99
2019-05-17T02:34:16.187Z,99.99
2019-05-17T02:35:16.158Z,99.99
2019-05-17T02:36:16.133Z,99.99
2019-05-17T02:37:16.135Z,99.99
2019-05-17T02:38:16.117Z,99.99
2019-05-17T02:39:16.098Z,99.99
2019-05-17T02:40:16.111Z,99.99
2019-05-17T02:41:16.081Z,99.99
2019-05-17T02:42:16.081Z,99.99
2019-05-17T02:43:16.058Z,99.99
2019-05-17T02:44:16.046Z,99.99
2019-05-17T02:45:16.056Z,99.99
2019-05-17T02:46:16.022Z,99.99
2019-05-17T02:47:16.513Z,99.99
2019-05-17T02:48:16.008Z,99.99
2019-05-17T02:49:15.990Z,99.99
2019-05-17T02:50:16.005Z,99.99
2019-05-17T02:51:15.964Z,99.99
2019-05-17T02:52:16.058Z,99.99
2019-05-17T02:53:15.946Z,99.99
2019-05-17T02:54:16.469Z,99.99
2019-05-17T02:55:15.959Z,99.99
2019-05-17T02:56:15.912Z,99.99
2019-05-17T02:57:15.911Z,99.99
2019-05-17T02:58:15.892Z,99.99
2019-05-17T02:59:16.451Z,99.99
2019-05-17T03:00:15.912Z,99.99
2019-05-17T03:01:15.851Z,99.99
2019-05-17T03:02:15.853Z,99.99
2019-05-17T03:03:15.836Z,99.99
2019-05-17T03:04:15.827Z,99.99
2019-05-17T03:05:15.843Z,99.99
2019-05-17T03:06:15.832Z,99.99
2019-05-17T03:07:15.785Z,99.99
2019-05-17T03:08:15.782Z,99.99
2019-05-17T03:09:15.762Z,99.99
2019-05-17T03:10:23.567Z,99.99
2019-05-17T03:11:16.740Z,99.99
2019-05-17T03:12:15.743Z,99.99
2019-05-17T03:13:18.013Z,99.99
2019-05-17T03:14:15.711Z,99.99
2019-05-17T03:15:15.723Z,99.99
2019-05-17T03:16:15.722Z,99.99
2019-05-17T03:17:15.689Z,99.99
2019-05-17T03:18:15.674Z,99.99
2019-05-17T03:19:15.654Z,99.35
2019-05-17T03:20:15.659Z,99.99
2019-05-17T03:21:15.649Z,99.97
2019-05-17T03:22:15.629Z,99.99
2019-05-17T03:23:15.637Z,99.99
2019-05-17T03:24:15.614Z,99.91
2019-05-17T03:25:15.610Z,99.91
2019-05-17T03:26:15.582Z,99.99
2019-05-17T03:27:15.589Z,99.99
2019-05-17T03:28:15.563Z,99.99
2019-05-17T03:29:15.560Z,99.99
2019-05-17T03:30:18.316Z,99.99
2019-05-17T03:31:17.269Z,99.40
2019-05-17T03:32:16.935Z,99.09
2019-05-17T03:33:16.762Z,99.51
2019-05-17T03:34:17.421Z,99.19
2019-05-17T03:35:17.599Z,99.40
2019-05-17T03:36:17.263Z,99.40
2019-05-17T03:37:16.332Z,98.99
2019-05-17T03:38:15.451Z,98.99
2019-05-17T03:39:15.439Z,98.99
2019-05-17T03:40:30.596Z,98.99
2019-05-17T03:41:23.416Z,98.88
2019-05-17T03:42:16.404Z,98.79
2019-05-17T03:43:15.391Z,98.68
2019-05-17T03:44:15.379Z,98.79
2019-05-17T03:45:15.377Z,99.19
2019-05-17T03:46:15.379Z,98.99
2019-05-17T03:47:15.339Z,98.99
2019-05-17T03:48:15.343Z,98.99
2019-05-17T03:49:15.323Z,99.40
2019-05-17T03:50:15.312Z,99.46
2019-05-17T03:51:15.318Z,98.68
2019-05-17T03:52:15.289Z,99.09
2019-05-17T03:53:15.299Z,99.09
2019-05-17T03:54:15.274Z,98.88
2019-05-17T03:55:15.267Z,99.19
2019-05-17T03:56:15.256Z,98.88
2019-05-17T03:57:15.235Z,98.88
2019-05-17T03:58:15.222Z,99.51
2019-05-17T03:59:15.206Z,98.68
2019-05-17T04:00:15.202Z,98.58
2019-05-17T04:01:15.219Z,98.79
2019-05-17T04:02:15.190Z,99.09
2019-05-17T04:03:15.191Z,98.58
2019-05-17T04:04:15.184Z,98.53
2019-05-17T04:05:15.148Z,98.99
2019-05-17T04:06:15.226Z,98.06
2019-05-17T04:07:15.124Z,97.65
2019-05-17T04:08:15.119Z,98.47
2019-05-17T04:09:15.103Z,98.84
2019-05-17T04:10:15.629Z,98.74
2019-05-17T04:11:25.703Z,98.33
2019-05-17T04:12:16.076Z,98.43
2019-05-17T04:13:15.061Z,98.53
2019-05-17T04:14:15.053Z,98.74
2019-05-17T04:15:15.046Z,98.84
2019-05-17T04:16:15.050Z,98.74
2019-05-17T04:17:15.009Z,98.74
2019-05-17T04:18:15.004Z,97.91
2019-05-17T04:19:15.007Z,97.91
2019-05-17T04:20:14.979Z,98.07
2019-05-17T04:21:14.961Z,97.91
2019-05-17T04:22:14.960Z,97.87
2019-05-17T04:23:15.453Z,97.71
2019-05-17T04:24:14.937Z,97.45
2019-05-17T04:25:14.948Z,97.45
2019-05-17T04:26:14.923Z,97.45
2019-05-17T04:27:14.924Z,97.45
2019-05-17T04:28:14.889Z,97.25
2019-05-17T04:30:15.935Z,97.45
2019-05-17T04:31:14.876Z,97.45
2019-05-17T04:32:14.875Z,97.25
2019-05-17T04:33:14.837Z,97.25
2019-05-17T04:34:14.823Z,97.77
2019-05-17T04:35:14.812Z,97.45
2019-05-17T04:36:14.824Z,97.56
2019-05-17T04:37:14.805Z,97.56
2019-05-17T04:38:14.774Z,98.07
2019-05-17T04:39:14.767Z,98.49
2019-05-17T04:40:14.981Z,98.38
2019-05-17T04:41:14.756Z,98.69
2019-05-17T04:42:14.757Z,98.90
2019-05-17T04:43:14.727Z,98.69
2019-05-17T04:44:14.713Z,98.65
2019-05-17T04:45:14.719Z,98.33
2019-05-17T04:46:14.690Z,98.65
2019-05-17T04:47:14.707Z,98.33
2019-05-17T04:48:14.667Z,98.54
2019-05-17T04:49:14.661Z,98.54
2019-05-17T04:50:14.648Z,98.49
2019-05-17T04:51:14.651Z,98.44
2019-05-17T04:52:14.650Z,98.54
2019-05-17T04:53:14.617Z,98.54
2019-05-17T04:54:14.604Z,98.24
2019-05-17T04:55:14.592Z,98.65
2019-05-17T04:56:14.578Z,98.33
2019-05-17T04:57:14.723Z,98.44
2019-05-17T04:58:14.556Z,98.54
2019-05-17T04:59:14.544Z,98.85
2019-05-17T05:00:14.533Z,98.70
2019-05-17T05:01:14.522Z,97.78
2019-05-17T05:02:14.533Z,97.99
2019-05-17T05:03:14.500Z,97.78
2019-05-17T05:04:15.464Z,97.22
2019-05-17T05:05:14.622Z,97.53
2019-05-17T05:06:14.481Z,97.06
2019-05-17T05:07:14.479Z,97.67
2019-05-17T05:08:14.446Z,97.37
2019-05-17T05:09:14.446Z,97.16
2019-05-17T05:10:14.594Z,97.37
2019-05-17T05:11:14.413Z,96.75
2019-05-17T05:12:14.441Z,96.85
2019-05-17T05:13:14.389Z,96.44
2019-05-17T05:14:14.382Z,96.75
2019-05-17T05:15:14.382Z,97.57
2019-05-17T05:16:14.352Z,97.32
2019-05-17T05:17:14.353Z,97.02
2019-05-17T05:18:14.364Z,96.60
2019-05-17T05:19:14.326Z,96.70
2019-05-17T05:20:14.310Z,97.22
2019-05-17T05:21:14.309Z,97.63
2019-05-17T05:22:16.943Z,97.53
2019-05-17T05:23:14.307Z,97.63
2019-05-17T05:24:14.270Z,97.53
2019-05-17T05:25:14.250Z,97.07
2019-05-17T05:26:14.243Z,97.28
2019-05-17T05:27:14.240Z,96.66
2019-05-17T05:28:14.243Z,96.35
2019-05-17T05:29:14.230Z,96.77
2019-05-17T05:30:14.191Z,96.41
2019-05-17T05:31:14.196Z,96.00
2019-05-17T05:32:14.208Z,96.10
2019-05-17T05:33:14.181Z,96.00
2019-05-17T05:34:14.151Z,95.69
2019-05-17T05:35:14.152Z,95.90
2019-05-17T05:36:14.129Z,96.31
2019-05-17T05:37:14.128Z,95.49
2019-05-17T05:38:14.135Z,95.79
2019-05-17T05:39:14.099Z,95.69
2019-05-17T05:40:14.087Z,95.65
2019-05-17T05:41:14.092Z,95.54
2019-05-17T05:42:14.241Z,95.44
2019-05-17T05:43:14.069Z,95.24
2019-05-17T05:44:14.037Z,95.03
2019-05-17T05:45:14.027Z,95.34
2019-05-17T05:46:14.019Z,94.83
2019-05-17T05:47:14.010Z,95.29
2019-05-17T05:48:14.028Z,95.20
2019-05-17T05:49:14.005Z,95.29
2019-05-17T05:50:13.977Z,95.61
2019-05-17T05:51:13.968Z,95.25
2019-05-17T05:52:13.955Z,95.15
2019-05-17T05:53:13.959Z,94.64
2019-05-17T05:54:13.931Z,94.33
2019-05-17T05:55:13.935Z,94.18
2019-05-17T05:56:13.909Z,94.43
2019-05-17T05:57:13.899Z,94.59
2019-05-17T05:58:13.915Z,94.74
2019-05-17T05:59:13.906Z,94.80
2019-05-17T06:00:13.880Z,93.88
2019-05-17T06:01:14.284Z,94.29
2019-05-17T06:02:13.838Z,93.57
2019-05-17T06:03:13.835Z,93.73
2019-05-17T06:04:13.839Z,93.63
2019-05-17T06:05:17.241Z,93.22
2019-05-17T06:06:13.829Z,93.52
2019-05-17T06:07:13.801Z,93.43
2019-05-17T06:08:13.777Z,93.73
2019-05-17T06:09:13.789Z,93.52
2019-05-17T06:10:13.751Z,93.22
2019-05-17T06:11:13.737Z,93.52
2019-05-17T06:12:22.920Z,92.56
2019-05-17T06:13:14.720Z,92.87
2019-05-17T06:14:13.750Z,92.66
2019-05-17T06:15:13.696Z,92.66
2019-05-17T06:16:13.723Z,92.66
2019-05-17T06:17:13.677Z,92.66
2019-05-17T06:18:13.667Z,92.77
2019-05-17T06:19:13.675Z,92.11
2019-05-17T06:20:13.638Z,91.50
2019-05-17T06:21:13.631Z,91.44
2019-05-17T06:22:13.620Z,90.88
2019-05-17T06:23:13.619Z,90.37
2019-05-17T06:24:13.626Z,90.99
2019-05-17T06:25:15.580Z,90.53
2019-05-17T06:26:13.565Z,90.64
2019-05-17T06:27:13.559Z,90.94
2019-05-17T06:28:13.549Z,90.64
2019-05-17T06:29:13.558Z,90.90
2019-05-17T06:30:13.528Z,91.00
2019-05-17T06:31:15.186Z,91.11
2019-05-17T06:32:13.505Z,91.00
2019-05-17T06:33:27.147Z,91.11
2019-05-17T06:34:14.497Z,90.70
2019-05-17T06:35:13.473Z,90.86
2019-05-17T06:36:13.825Z,90.66
2019-05-17T06:37:16.486Z,90.66
2019-05-17T06:38:13.447Z,89.63
2019-05-17T06:39:13.453Z,89.84
2019-05-17T06:40:13.495Z,88.98
2019-05-17T06:41:13.408Z,88.88
2019-05-17T06:42:13.393Z,88.67
2019-05-17T06:43:13.467Z,88.98
2019-05-17T06:44:13.391Z,88.84
2019-05-17T06:45:13.368Z,87.82
2019-05-17T06:46:13.359Z,87.71
2019-05-17T06:47:13.344Z,87.51
2019-05-17T06:48:13.338Z,86.80
2019-05-17T06:49:13.332Z,85.94
2019-05-17T06:50:14.472Z,85.63
2019-05-17T06:51:13.305Z,86.04
2019-05-17T06:52:13.280Z,86.45
2019-05-17T06:53:13.275Z,86.45
2019-05-17T06:54:13.295Z,86.21
2019-05-17T06:55:13.370Z,86.10
2019-05-17T06:56:13.237Z,85.69
2019-05-17T06:57:13.223Z,84.67
2019-05-17T06:58:13.215Z,84.03
2019-05-17T06:59:13.205Z,84.12
2019-05-17T07:00:19.867Z,82.70
2019-05-17T07:01:14.187Z,81.79
2019-05-17T07:02:13.175Z,81.88
2019-05-17T07:03:13.159Z,82.50
2019-05-17T07:04:13.143Z,81.99
2019-05-17T07:05:13.305Z,81.85
2019-05-17T07:06:13.127Z,82.05
2019-05-17T07:07:13.122Z,80.02
2019-05-17T07:08:13.121Z,79.30
2019-05-17T07:09:13.089Z,78.89
2019-05-17T07:10:13.104Z,78.89
2019-05-17T07:11:13.089Z,79.20
2019-05-17T07:12:13.059Z,79.61
2019-05-17T07:13:13.044Z,81.13
2019-05-17T07:14:13.036Z,80.79
2019-05-17T07:15:13.084Z,80.49
2019-05-17T07:16:13.012Z,80.24
2019-05-17T07:17:12.999Z,80.35
2019-05-17T07:18:12.994Z,79.74
2019-05-17T07:19:12.979Z,79.53
2019-05-17T07:20:13.018Z,78.68
2019-05-17T07:21:12.956Z,78.48
2019-05-17T07:22:12.948Z,77.87
2019-05-17T07:23:12.937Z,77.26
2019-05-17T07:24:12.926Z,77.56
2019-05-17T07:25:12.940Z,77.67
2019-05-17T07:26:12.903Z,77.53
2019-05-17T07:27:12.889Z,77.47
2019-05-17T07:28:12.889Z,77.53
2019-05-17T07:29:12.869Z,77.22
2019-05-17T07:30:12.887Z,77.94
2019-05-17T07:31:12.852Z,77.12
2019-05-17T07:32:12.837Z,77.39
2019-05-17T07:33:12.819Z,77.19
2019-05-17T07:34:12.815Z,76.58
2019-05-17T07:35:12.819Z,75.56
2019-05-17T07:36:12.790Z,74.31
2019-05-17T07:37:12.781Z,74.41
2019-05-17T07:38:12.779Z,74.24
2019-05-17T07:39:12.760Z,74.41
2019-05-17T07:40:12.763Z,74.10
2019-05-17T07:41:12.736Z,73.50
2019-05-17T07:42:12.778Z,74.21
2019-05-17T07:43:14.940Z,74.31
2019-05-17T07:44:12.697Z,74.10
2019-05-17T07:45:12.728Z,74.21
2019-05-17T07:46:12.681Z,73.50
2019-05-17T07:47:12.680Z,74.27
2019-05-17T07:48:12.659Z,74.58
2019-05-17T07:49:12.649Z,73.43
2019-05-17T07:50:13.082Z,73.22
2019-05-17T07:51:12.666Z,73.12
2019-05-17T07:52:12.616Z,73.83
2019-05-17T07:53:12.615Z,73.73
2019-05-17T07:54:12.583Z,73.80
2019-05-17T07:55:12.585Z,72.52
2019-05-17T07:56:12.587Z,71.88
2019-05-17T07:57:12.557Z,71.67
2019-05-17T07:58:12.551Z,71.88
2019-05-17T07:59:12.531Z,71.03
2019-05-17T08:00:12.532Z,71.13
2019-05-17T08:01:12.600Z,71.03
2019-05-17T08:02:12.504Z,71.03
2019-05-17T08:03:13.558Z,70.52
2019-05-17T08:04:12.479Z,69.71
2019-05-17T08:05:12.475Z,70.01
2019-05-17T08:06:12.559Z,69.78
2019-05-17T08:07:12.452Z,69.81
2019-05-17T08:08:12.447Z,69.92
2019-05-17T08:09:14.218Z,70.21
2019-05-17T08:10:12.412Z,70.12
2019-05-17T08:11:12.415Z,70.32
2019-05-17T08:12:12.393Z,70.01
2019-05-17T08:13:25.819Z,69.68
2019-05-17T08:14:26.470Z,69.98
2019-05-17T08:15:13.351Z,69.98
2019-05-17T08:16:12.371Z,69.78
2019-05-17T08:17:12.336Z,69.98
2019-05-17T08:18:12.321Z,69.68
2019-05-17T08:19:12.307Z,69.48
2019-05-17T08:20:12.430Z,69.37
2019-05-17T08:21:12.308Z,69.48
2019-05-17T08:22:12.317Z,68.56
2019-05-17T08:23:12.264Z,69.07
2019-05-17T08:24:12.264Z,68.66
2019-05-17T08:25:12.245Z,68.66
2019-05-17T08:26:12.255Z,68.94
2019-05-17T08:27:12.220Z,68.33
2019-05-17T08:28:12.210Z,68.02
2019-05-17T08:29:12.199Z,67.93
2019-05-17T08:30:12.189Z,68.13
2019-05-17T08:31:12.588Z,67.93
2019-05-17T08:32:12.163Z,67.99
2019-05-17T08:33:12.155Z,67.69
2019-05-17T08:34:12.138Z,67.35
2019-05-17T08:35:12.135Z,67.35
2019-05-17T08:36:12.143Z,67.15
2019-05-17T08:37:12.131Z,66.64
2019-05-17T08:38:12.102Z,67.25
2019-05-17T08:39:12.093Z,67.02
2019-05-17T08:40:15.056Z,67.12
2019-05-17T08:41:12.081Z,67.12
2019-05-17T08:42:12.096Z,66.92
2019-05-17T08:43:12.057Z,65.47
2019-05-17T08:44:12.039Z,66.48
2019-05-17T08:45:12.019Z,65.78
2019-05-17T08:46:12.026Z,64.53
2019-05-17T08:47:11.995Z,64.73
2019-05-17T08:48:11.991Z,63.96
2019-05-17T08:49:11.971Z,64.64
2019-05-17T08:50:11.967Z,64.43
2019-05-17T08:51:11.972Z,64.10
2019-05-17T08:52:11.951Z,63.82
2019-05-17T08:53:11.953Z,64.13
2019-05-17T08:54:11.944Z,64.50
2019-05-17T08:55:11.933Z,64.50
2019-05-17T08:56:11.916Z,64.30
2019-05-17T08:57:11.887Z,64.81
2019-05-17T08:58:11.877Z,64.10
2019-05-17T08:59:11.868Z,64.07
2019-05-17T09:00:11.846Z,62.55
2019-05-17T09:01:11.862Z,62.45
2019-05-17T09:02:11.827Z,62.55
2019-05-17T09:03:11.826Z,62.38
2019-05-17T09:04:11.823Z,61.88
2019-05-17T09:05:11.804Z,61.47
2019-05-17T09:06:12.686Z,63.19
2019-05-17T09:07:11.921Z,62.41
2019-05-17T09:08:11.763Z,62.71
2019-05-17T09:09:11.747Z,62.88
2019-05-17T09:10:11.749Z,61.65
2019-05-17T09:11:11.742Z,62.18
2019-05-17T09:12:11.748Z,62.76
2019-05-17T09:13:14.668Z,62.15
2019-05-17T09:14:11.698Z,63.16
2019-05-17T09:15:11.727Z,61.01
2019-05-17T09:16:11.686Z,61.72
2019-05-17T09:17:11.738Z,60.64
2019-05-17T09:18:11.650Z,60.94
2019-05-17T09:19:11.641Z,60.71
2019-05-17T09:20:11.645Z,60.81
2019-05-17T09:21:11.616Z,61.52
2019-05-17T09:22:11.628Z,61.21
2019-05-17T09:23:11.598Z,60.81
2019-05-17T09:24:11.594Z,61.39
2019-05-17T09:25:18.488Z,59.17
2019-05-17T09:26:12.562Z,59.47
2019-05-17T09:27:11.576Z,59.97
2019-05-17T09:28:11.548Z,58.97
2019-05-17T09:29:11.524Z,58.97
2019-05-17T09:30:11.525Z,59.67
2019-05-17T09:31:11.508Z,59.37
2019-05-17T09:32:11.530Z,59.17
2019-05-17T09:33:11.618Z,60.28
2019-05-17T09:34:11.476Z,59.37
2019-05-17T09:35:12.075Z,60.15
2019-05-17T09:36:11.489Z,60.55
2019-05-17T09:37:14.497Z,58.64
2019-05-17T09:38:11.430Z,58.84
2019-05-17T09:39:11.421Z,58.56
2019-05-17T09:40:11.407Z,59.17
2019-05-17T09:41:11.398Z,60.17
2019-05-17T09:42:11.402Z,59.24
2019-05-17T09:43:11.371Z,59.84
2019-05-17T09:44:15.843Z,59.14
2019-05-17T09:45:12.351Z,59.44
2019-05-17T09:46:11.396Z,58.54
2019-05-17T09:47:11.363Z,58.64
2019-05-17T09:48:11.327Z,59.14
2019-05-17T09:49:11.309Z,57.53
2019-05-17T09:50:11.300Z,58.31
2019-05-17T09:51:11.285Z,58.61
2019-05-17T09:52:11.293Z,58.31
2019-05-17T09:53:11.259Z,57.50
2019-05-17T09:54:11.245Z,59.22
2019-05-17T09:55:11.259Z,57.68
2019-05-17T09:56:11.233Z,58.38
2019-05-17T09:57:11.254Z,57.98
2019-05-17T09:58:11.209Z,58.48
2019-05-17T09:59:11.217Z,57.98
2019-05-17T10:00:11.184Z,58.38
2019-05-17T10:01:11.176Z,56.67
2019-05-17T10:02:11.157Z,56.47
2019-05-17T10:03:11.166Z,57.28
2019-05-17T10:04:13.400Z,57.15
2019-05-17T10:05:11.142Z,56.44
2019-05-17T10:06:11.119Z,57.02
2019-05-17T10:07:11.115Z,55.68
2019-05-17T10:08:11.242Z,55.68
2019-05-17T10:09:11.079Z,53.65
2019-05-17T10:10:11.111Z,53.20
2019-05-17T10:11:12.111Z,52.26
2019-05-17T10:12:11.061Z,51.44
2019-05-17T10:13:11.065Z,49.31
2019-05-17T10:14:24.616Z,50.39
2019-05-17T10:15:12.026Z,49.37
2019-05-17T10:16:11.024Z,49.14
2019-05-17T10:17:10.989Z,48.32
2019-05-17T10:18:11.359Z,47.79
2019-05-17T10:19:10.969Z,46.87
2019-05-17T10:20:11.062Z,46.05
2019-05-17T10:21:10.960Z,46.85
2019-05-17T10:22:10.947Z,46.42
2019-05-17T10:23:11.004Z,48.04
2019-05-17T10:24:10.913Z,48.24
2019-05-17T10:25:10.903Z,49.24
2019-05-17T10:26:10.893Z,49.19
2019-05-17T10:27:11.165Z,48.19
2019-05-17T10:28:10.903Z,48.05
2019-05-17T10:29:10.867Z,46.78
2019-05-17T10:30:10.861Z,44.82
2019-05-17T10:31:11.981Z,44.20
2019-05-17T10:32:10.835Z,45.44
2019-05-17T10:33:10.841Z,45.86
2019-05-17T10:34:10.835Z,46.20
2019-05-17T10:35:10.817Z,47.75
2019-05-17T10:36:10.787Z,48.67
2019-05-17T10:37:10.773Z,48.97
2019-05-17T10:38:10.792Z,48.39
2019-05-17T10:39:10.764Z,49.32
2019-05-17T10:40:10.925Z,49.62
2019-05-17T10:41:10.726Z,49.72
2019-05-17T10:42:10.716Z,50.04
2019-05-17T10:43:10.731Z,50.07
2019-05-17T10:44:10.709Z,50.67
2019-05-17T10:45:11.230Z,50.69
2019-05-17T10:46:10.782Z,50.19
2019-05-17T10:47:10.669Z,51.72
2019-05-17T10:48:10.670Z,49.81
2019-05-17T10:49:10.991Z,51.01
2019-05-17T10:50:11.089Z,52.84
2019-05-17T10:51:13.252Z,52.94
2019-05-17T10:52:10.626Z,52.67
2019-05-17T10:53:10.644Z,51.97
2019-05-17T10:54:10.592Z,52.17
2019-05-17T10:55:10.922Z,52.39
2019-05-17T10:56:10.580Z,52.49
2019-05-17T10:57:10.673Z,52.92
2019-05-17T10:58:10.618Z,52.82
2019-05-17T10:59:10.530Z,52.82
2019-05-17T11:00:10.525Z,53.32
2019-05-17T11:01:10.507Z,53.22
2019-05-17T11:02:10.505Z,54.02
2019-05-17T11:03:10.519Z,54.96
2019-05-17T11:04:10.597Z,55.46
2019-05-17T11:05:10.746Z,55.76
2019-05-17T11:06:11.117Z,54.17
2019-05-17T11:07:10.659Z,54.17
2019-05-17T11:08:10.965Z,54.78
2019-05-17T11:09:10.453Z,54.78
2019-05-17T11:10:11.675Z,54.17
2019-05-17T11:11:10.399Z,54.10
2019-05-17T11:12:10.398Z,54.73
2019-05-17T11:13:10.392Z,55.03
2019-05-17T11:14:10.374Z,55.74
2019-05-17T11:15:11.989Z,54.60
2019-05-17T11:16:10.353Z,55.83
2019-05-17T11:17:10.339Z,53.20
2019-05-17T11:18:10.345Z,54.63
2019-05-17T11:19:10.316Z,55.31
2019-05-17T11:20:10.313Z,54.60
2019-05-17T11:21:10.289Z,55.21
2019-05-17T11:22:10.365Z,54.10
2019-05-17T11:23:10.367Z,54.10
2019-05-17T11:24:10.275Z,53.80
2019-05-17T11:25:10.250Z,54.17
2019-05-17T11:26:10.253Z,54.08
2019-05-17T11:27:10.221Z,54.05
2019-05-17T11:28:10.245Z,53.55
2019-05-17T11:29:10.200Z,53.42
2019-05-17T11:30:10.189Z,53.02
2019-05-17T11:31:10.188Z,52.59
2019-05-17T11:32:10.184Z,52.47
2019-05-17T11:33:10.193Z,51.44
2019-05-17T11:34:10.147Z,49.23
2019-05-17T11:35:10.155Z,49.54
2019-05-17T11:36:10.124Z,50.63
2019-05-17T11:37:10.121Z,50.34
2019-05-17T11:38:10.134Z,49.74
2019-05-17T11:39:10.149Z,50.34
2019-05-17T11:40:10.101Z,49.84
2019-05-17T11:41:20.620Z,50.13
2019-05-17T11:42:11.070Z,50.46
2019-05-17T11:43:10.075Z,51.87
2019-05-17T11:44:10.094Z,52.17
2019-05-17T11:45:10.038Z,52.07
2019-05-17T11:46:10.026Z,51.79
2019-05-17T11:47:10.018Z,52.29
2019-05-17T11:48:10.014Z,52.82
2019-05-17T11:49:10.007Z,52.24
2019-05-17T11:50:09.986Z,52.67
2019-05-17T11:51:09.979Z,52.97
2019-05-17T11:52:09.999Z,54.00
2019-05-17T11:54:11.087Z,53.40
2019-05-17T11:55:09.917Z,55.00
2019-05-17T11:56:09.951Z,55.00
2019-05-17T11:57:12.290Z,54.71
2019-05-17T11:58:09.890Z,54.40
2019-05-17T11:59:09.893Z,55.51
2019-05-17T12:00:09.873Z,54.91
2019-05-17T12:01:09.850Z,55.28
2019-05-17T12:02:09.839Z,54.58
2019-05-17T12:03:09.844Z,54.68
2019-05-17T12:04:09.849Z,54.75
2019-05-17T12:05:09.811Z,53.42
2019-05-17T12:06:09.809Z,53.52
2019-05-17T12:07:09.790Z,52.69
2019-05-17T12:08:09.773Z,52.47
2019-05-17T12:09:09.781Z,50.76
2019-05-17T12:10:09.751Z,51.24
2019-05-17T12:11:09.743Z,51.21
2019-05-17T12:12:09.733Z,51.97
2019-05-17T12:13:09.714Z,51.37
2019-05-17T12:14:09.725Z,50.14
2019-05-17T12:15:09.694Z,48.11
2019-05-17T12:16:09.704Z,48.11
2019-05-17T12:17:09.694Z,48.29
2019-05-17T12:18:09.665Z,47.95
2019-05-17T12:19:09.669Z,48.25
2019-05-17T12:20:09.648Z,47.42
2019-05-17T12:21:09.633Z,47.22
2019-05-17T12:22:09.637Z,46.53
2019-05-17T12:23:09.629Z,45.45
2019-05-17T12:24:09.620Z,46.13
2019-05-17T12:25:09.582Z,46.85
2019-05-17T12:26:09.575Z,46.55
2019-05-17T12:27:09.571Z,46.15
2019-05-17T12:28:09.566Z,45.27
2019-05-17T12:29:09.573Z,47.47
2019-05-17T12:30:09.553Z,48.19
2019-05-17T12:31:09.528Z,48.07
2019-05-17T12:32:14.329Z,47.89
2019-05-17T12:33:10.495Z,46.39
2019-05-17T12:34:09.513Z,47.31
2019-05-17T12:35:09.480Z,46.51
2019-05-17T12:36:09.463Z,47.74
2019-05-17T12:37:09.471Z,48.26
2019-05-17T12:38:09.444Z,48.28
2019-05-17T12:39:09.460Z,48.53
2019-05-17T12:40:09.458Z,49.33
2019-05-17T12:41:09.417Z,50.66
2019-05-17T12:42:09.482Z,49.86
2019-05-17T12:43:09.407Z,49.78
2019-05-17T12:44:09.435Z,50.21
2019-05-17T12:45:09.379Z,51.61
2019-05-17T12:46:09.365Z,51.21
2019-05-17T12:47:09.353Z,52.84
2019-05-17T12:48:09.336Z,52.44
2019-05-17T12:49:09.360Z,52.84
2019-05-17T12:50:09.325Z,53.55
2019-05-17T12:51:09.304Z,52.74
2019-05-17T12:52:09.293Z,53.05
2019-05-17T12:53:09.298Z,52.55
2019-05-17T12:54:09.290Z,53.67